Time;durP1;ratioP1;P1;durP2;ratioP2;P2;SDS_P1;SDS_P2;PMS_P1;PMS_P2;Temp;Humidity;BMP_temperature;BMP_pressure;BME280_temperature;BME280_humidity;BME280_pressure;Samples;Min_cycle;Max_cycle;Signal;HPM_P1;HPM_P2
2022/10/24 00:03:41;;;;;;;4.35;3.15;;;17.70;66.50;;;16.90;62.24;100691.22;12299175;19;20007;-86
2022/10/24 00:07:43;;;;;;;3.58;3.28;;;17.70;66.40;;;16.87;62.39;100704.66;12294109;19;20021;-87
2022/10/24 00:11:45;;;;;;;3.92;3.42;;;17.80;66.20;;;16.42;62.25;100653.84;12289262;19;20092;-87
2022/10/24 00:15:48;;;;;;;8.98;3.30;;;17.70;66.10;;;16.82;62.39;100706.81;12284102;19;20015;-87
2022/10/24 00:19:53;;;;;;;6.68;3.58;;;17.60;66.00;;;16.87;62.29;100707.28;12285111;19;20018;-87
2022/10/24 00:23:54;;;;;;;7.30;3.30;;;17.70;66.20;;;16.89;62.32;100731.75;12289013;19;20007;-87
2022/10/24 00:27:56;;;;;;;4.22;3.83;;;17.60;65.90;;;16.86;62.32;100742.56;12294701;19;20015;-86
2022/10/24 00:31:58;;;;;;;3.40;3.10;;;17.70;66.20;;;16.66;62.47;100720.41;12301942;19;20007;-87
2022/10/24 00:35:59;;;;;;;3.40;3.10;;;17.70;66.20;;;16.79;62.53;100730.81;12300358;19;20029;-87
2022/10/24 00:40:04;;;;;;;4.78;3.22;;;17.60;66.00;;;16.83;62.59;100728.78;12296346;19;20007;-87
2022/10/24 00:44:20;;;;;;;3.55;3.25;;;17.90;66.40;;;16.86;62.54;100725.91;12300401;19;20018;-87
2022/10/24 00:48:57;;;;;;;3.95;3.38;;;17.80;66.50;;;16.79;62.46;100712.34;12296762;19;20010;-87
2022/10/24 00:52:59;;;;;;;3.67;3.17;;;17.60;65.90;;;16.76;62.56;100707.31;12296247;19;20013;-87
2022/10/24 00:57:18;;;;;;;3.05;2.72;;;17.60;65.90;;;16.80;62.40;100717.53;12299419;19;20022;-87
2022/10/24 01:01:19;;;;;;;4.43;2.88;;;17.60;65.90;;;16.79;62.60;100739.56;12303603;19;20030;-87
2022/10/24 01:05:25;;;;;;;3.65;2.83;;;17.60;65.80;;;16.70;62.71;100729.75;12299992;19;20050;-87
2022/10/24 01:09:56;;;;;;;3.78;3.13;;;17.60;65.80;;;16.80;62.37;100758.88;12280447;19;20376;-87
2022/10/24 01:14:22;;;;;;;4.65;3.40;;;17.60;66.10;;;16.80;62.72;100759.72;12277343;19;20015;-87
2022/10/24 01:18:36;;;;;;;5.00;2.85;;;17.60;66.20;;;16.78;62.52;100743.19;12270296;19;20029;-87
2022/10/24 01:23:42;;;;;;;4.65;2.83;;;17.60;66.50;;;16.72;62.60;100727.81;12275127;19;20010;-87
2022/10/24 01:27:59;;;;;;;3.33;3.03;;;17.60;66.70;;;16.79;62.72;100741.38;12273039;19;20339;-87
2022/10/24 01:32:54;;;;;;;3.00;2.75;;;17.60;66.90;;;16.76;62.78;100741.59;12276499;19;20040;-87
2022/10/24 01:37:07;;;;;;;3.03;2.70;;;17.50;66.60;;;16.74;62.74;100731.19;12271408;19;20413;-87
2022/10/24 01:41:22;;;;;;;2.58;2.33;;;17.60;66.20;;;16.74;62.69;100710.09;12274803;19;20356;-87
2022/10/24 01:45:32;;;;;;;3.33;3.03;;;17.50;65.60;;;16.65;62.53;100689.72;12275526;19;20010;-87
2022/10/24 01:49:37;;;;;;;3.28;2.97;;;17.50;65.40;;;16.67;62.46;100690.44;12275612;19;20033;-87
2022/10/24 01:53:42;;;;;;;3.15;2.83;;;17.50;65.40;;;16.60;62.55;100678.72;12275462;19;20019;-87
2022/10/24 01:57:44;;;;;;;;;;;17.60;65.00;;;16.45;62.54;100664.97;12268859;19;20014;-86
2022/10/24 02:01:47;;;;;;;2.15;1.95;;;17.40;64.60;;;16.53;62.49;100657.28;12273874;19;20256;-87
2022/10/24 02:05:58;;;;;;;3.95;2.15;;;17.40;64.30;;;16.44;62.57;100652.75;12272797;19;20024;-87
2022/10/24 02:10:13;;;;;;;3.00;2.60;;;17.30;64.30;;;16.48;62.42;100669.19;12271037;19;20018;-87
2022/10/24 02:14:26;;;;;;;4.07;2.40;;;17.30;64.50;;;16.14;62.76;100603.38;12271847;19;20019;-86
2022/10/24 02:18:31;;;;;;;3.40;2.58;;;17.30;64.50;;;16.47;62.66;100656.94;12268814;19;20036;-86
2022/10/24 02:22:50;;;;;;;2.85;2.58;;;17.30;64.60;;;16.34;62.54;100647.41;12271003;19;20395;-87
2022/10/24 02:27:06;;;;;;;4.22;2.95;;;17.20;64.40;;;16.39;62.59;100660.22;12269885;19;20007;-87
2022/10/24 02:31:18;;;;;;;2.78;2.58;;;17.20;64.40;;;16.32;62.53;100654.59;12269090;19;20021;-87
2022/10/24 02:35:26;;;;;;;5.05;2.53;;;17.20;64.40;;;16.31;62.71;100662.59;12269099;19;20035;-87
2022/10/24 02:39:29;;;;;;;3.60;2.63;;;17.20;64.30;;;16.29;62.79;100665.38;12269283;19;20018;-87
2022/10/24 02:43:31;;;;;;;3.33;2.78;;;17.20;64.30;;;15.89;62.75;100591.34;12270526;19;20014;-86
2022/10/24 02:47:35;;;;;;;3.05;2.75;;;17.30;64.40;;;16.14;62.47;100637.63;12266854;19;20014;-87
2022/10/24 02:51:42;;;;;;;3.28;2.78;;;17.10;64.10;;;16.32;62.27;100661.66;12269511;19;20006;-87
2022/10/24 02:55:44;;;;;;;3.28;2.72;;;17.30;64.30;;;16.12;62.15;100629.84;12268305;19;20044;-87
2022/10/24 02:59:45;;;;;;;2.83;2.63;;;17.10;64.00;;;15.92;62.64;100591.09;12270685;19;20014;-87
2022/10/24 03:03:47;;;;;;;2.78;2.47;;;17.30;63.90;;;15.80;62.59;100585.00;12268532;19;20326;-86
2022/10/24 03:07:49;;;;;;;3.05;2.65;;;17.00;63.60;;;15.75;62.37;100571.38;12267763;19;20031;-87
2022/10/24 03:11:51;;;;;;;2.60;2.40;;;17.10;63.60;;;15.77;62.43;100595.78;12267778;19;20368;-87
2022/10/24 03:15:53;;;;;;;2.60;2.40;;;17.00;63.50;;;15.58;62.42;100566.56;12265211;19;20024;-86
2022/10/24 03:19:54;;;;;;;3.13;2.70;;;16.90;63.60;;;15.56;62.53;100563.22;12267713;19;20036;-87
2022/10/24 03:23:56;;;;;;;5.15;2.50;;;16.80;63.30;;;15.80;62.41;100607.88;12265992;19;20014;-86
2022/10/24 03:27:58;;;;;;;2.88;2.42;;;16.80;63.00;;;15.61;62.28;100593.50;12260586;19;20074;-87
2022/10/24 03:32:00;;;;;;;2.55;2.35;;;16.90;62.80;;;15.45;62.29;100574.59;12262834;19;20054;-87
2022/10/24 03:36:02;;;;;;;2.90;2.33;;;16.80;63.00;;;15.46;62.15;100581.53;12264210;19;20021;-87
2022/10/24 03:40:04;;;;;;;4.47;2.63;;;16.70;63.30;;;15.51;62.34;100599.59;12265072;19;20006;-86
2022/10/24 03:44:06;;;;;;;2.35;2.15;;;16.60;63.40;;;15.73;62.41;100641.72;12265420;19;20017;-87
2022/10/24 03:48:08;;;;;;;2.40;2.20;;;16.50;63.70;;;15.38;62.39;100587.38;12260081;19;20043;-87
2022/10/24 03:52:10;;;;;;;3.15;2.80;;;16.70;63.80;;;15.33;62.27;100571.09;12262722;19;20317;-87
2022/10/24 03:56:12;;;;;;;3.05;2.22;;;16.40;63.80;;;15.72;62.43;100639.25;12263631;19;20100;-86
2022/10/24 04:00:15;;;;;;;2.30;2.08;;;16.50;64.10;;;15.35;62.52;100582.34;12264935;19;20002;-87
2022/10/24 04:04:16;;;;;;;5.25;1.92;;;16.50;64.10;;;15.25;62.60;100568.22;12273514;19;20100;-86
2022/10/24 04:08:18;;;;;;;2.80;2.47;;;16.40;64.00;;;15.30;62.54;100586.31;12272725;19;20014;-86
2022/10/24 04:12:20;;;;;;;2.50;2.30;;;16.70;64.20;;;15.21;62.46;100575.53;12276625;19;20352;-86
2022/10/24 04:16:22;;;;;;;2.67;1.85;;;16.50;64.10;;;15.27;62.44;100587.38;12273814;19;20035;-87
2022/10/24 04:20:24;;;;;;;2.25;2.08;;;16.60;64.10;;;15.65;62.43;100652.81;12274750;19;20066;-87
2022/10/24 04:24:26;;;;;;;2.95;2.17;;;16.40;64.10;;;15.25;62.50;100587.47;12270850;19;20014;-86
2022/10/24 04:28:29;;;;;;;2.58;2.38;;;16.40;64.00;;;15.15;62.70;100583.03;12271440;19;20033;-86
2022/10/24 04:32:30;;;;;;;3.40;2.30;;;16.40;64.30;;;15.21;62.60;100583.44;12278331;19;20018;-87
2022/10/24 04:36:33;;;;;;;2.20;2.00;;;16.40;64.30;;;15.35;62.35;100623.63;12275811;19;20495;-87
2022/10/24 04:40:35;;;;;;;2.78;2.25;;;16.50;64.30;;;15.41;62.51;100633.66;12275206;19;20025;-87
2022/10/24 04:44:37;;;;;;;3.50;2.00;;;16.30;64.60;;;15.45;62.51;100643.03;12277184;19;20002;-87
2022/10/24 04:48:38;;;;;;;2.33;2.00;;;16.50;64.60;;;15.21;62.49;100603.63;12273189;19;20014;-88
2022/10/24 04:52:40;;;;;;;2.35;1.90;;;16.50;64.50;;;15.14;62.37;100594.53;12272371;19;20022;-87
2022/10/24 04:56:42;;;;;;;2.83;2.40;;;16.30;64.30;;;15.16;62.62;100596.09;12273653;19;20018;-86
2022/10/24 05:00:47;;;;;;;3.97;1.90;;;16.30;64.20;;;15.26;62.74;100609.38;12273109;19;20058;-86
2022/10/24 05:04:48;;;;;;;2.23;2.07;;;16.30;63.70;;;15.11;62.42;100602.66;12274015;19;20019;-87
2022/10/24 05:08:50;;;;;;;1.83;1.73;;;16.50;63.00;;;14.95;62.24;100609.06;12270266;19;20048;-87
2022/10/24 05:12:52;;;;;;;2.25;1.70;;;16.20;62.80;;;14.91;62.35;100623.41;12276231;19;20026;-86
2022/10/24 05:16:56;;;;;;;3.25;2.13;;;16.20;62.90;;;14.79;62.62;100619.91;12271763;19;20012;-87
2022/10/24 05:20:59;;;;;;;2.95;1.90;;;16.10;63.30;;;14.71;62.38;100600.41;12273032;19;20003;-87
2022/10/24 05:25:01;;;;;;;4.30;1.90;;;16.20;63.40;;;14.78;62.44;100622.66;12271579;19;20030;-87
2022/10/24 05:29:03;;;;;;;2.35;2.08;;;16.20;63.70;;;14.96;62.60;100663.34;12266173;19;20022;-87
2022/10/24 05:33:04;;;;;;;2.08;1.85;;;16.00;64.00;;;14.75;62.59;100628.16;12268269;19;20479;-86
2022/10/24 05:37:06;;;;;;;1.95;1.75;;;16.10;64.90;;;14.88;62.70;100638.56;12267549;19;20018;-86
2022/10/24 05:41:07;;;;;;;2.30;1.83;;;15.90;64.90;;;14.77;62.69;100616.56;12269049;19;20015;-86
2022/10/24 05:45:10;;;;;;;1.65;1.55;;;16.10;65.20;;;14.79;62.73;100614.63;12271184;19;20006;-87
2022/10/24 05:49:13;;;;;;;16.50;2.45;;;16.10;65.30;;;14.93;62.73;100628.53;12259958;19;20015;-86
2022/10/24 05:53:14;;;;;;;2.47;1.95;;;16.00;65.40;;;14.78;62.57;100612.16;12262601;19;19998;-87
2022/10/24 05:57:16;;;;;;;2.47;1.98;;;16.10;65.60;;;14.80;62.87;100594.47;12258954;19;20387;-87
2022/10/24 06:01:17;;;;;;;2.50;2.30;;;16.10;65.40;;;14.95;62.60;100622.22;12260958;19;20485;-87
2022/10/24 06:05:22;;;;;;;2.17;1.85;;;16.10;64.50;;;14.89;62.88;100617.44;12258526;19;20353;-87
2022/10/24 06:09:24;;;;;;;2.72;2.22;;;15.90;63.90;;;14.65;62.54;100585.09;12256666;19;20025;-87
2022/10/24 06:13:26;;;;;;;1.92;1.73;;;16.00;63.60;;;14.55;62.63;100595.44;12262065;19;20006;-87
2022/10/24 06:17:27;;;;;;;2.10;1.90;;;16.00;63.90;;;14.52;62.72;100583.38;12261431;19;20023;-86
2022/10/24 06:21:32;;;;;;;2.80;1.92;;;15.80;63.80;;;14.79;62.60;100624.31;12268031;19;20010;-86
2022/10/24 06:25:34;;;;;;;3.28;2.10;;;15.80;63.70;;;14.72;62.63;100628.38;12264844;19;20014;-86
2022/10/24 06:29:39;;;;;;;2.85;1.95;;;15.90;63.40;;;14.41;62.57;100587.72;12264783;19;20011;-87
2022/10/24 06:33:40;;;;;;;3.20;2.20;;;15.60;63.40;;;14.36;62.72;100588.03;12267414;19;20070;-85
2022/10/24 06:37:42;;;;;;;2.15;1.70;;;15.60;63.50;;;14.36;62.61;100609.06;12263430;19;20014;-85
2022/10/24 06:41:47;;;;;;;2.13;1.92;;;15.50;63.70;;;14.34;62.75;100617.06;12265868;19;20010;-86
2022/10/24 06:45:49;;;;;;;2.72;1.70;;;15.60;64.00;;;14.27;62.56;100596.59;12262668;19;20050;-87
2022/10/24 06:49:51;;;;;;;1.50;1.40;;;15.50;64.20;;;14.45;62.65;100642.56;12266093;19;20048;-86
2022/10/24 06:53:52;;;;;;;3.95;1.85;;;15.60;64.60;;;14.50;62.88;100655.34;12264896;19;20051;-87
2022/10/24 06:57:54;;;;;;;2.70;1.45;;;15.70;65.20;;;14.31;62.83;100619.06;12261142;19;20062;-88
2022/10/24 07:01:57;;;;;;;1.65;1.55;;;15.40;65.40;;;14.53;62.93;100669.16;12266680;19;20061;-87
2022/10/24 07:06:06;;;;;;;1.80;1.60;;;15.60;66.20;;;14.62;62.90;100672.06;12264107;19;20339;-87
2022/10/24 07:10:13;;;;;;;1.90;1.80;;;15.70;66.70;;;14.74;63.19;100674.63;12263387;19;20011;-88
2022/10/24 07:14:14;;;;;;;2.42;2.22;;;15.70;67.60;;;14.47;63.13;100624.88;12263227;19;20030;-87
2022/10/24 07:18:16;;;;;;;2.15;2.00;;;15.60;67.70;;;14.52;63.23;100643.81;12258847;19;20096;-88
2022/10/24 07:22:18;;;;;;;4.88;1.92;;;15.70;67.80;;;14.75;63.30;100654.44;12259617;19;20456;-87
2022/10/24 07:26:21;;;;;;;2.47;1.90;;;15.70;68.00;;;14.59;63.31;100617.94;12261361;19;20117;-88
2022/10/24 07:30:23;;;;;;;2.95;2.08;;;15.80;68.30;;;15.01;63.33;100679.63;12261653;19;20465;-88
2022/10/24 07:34:25;;;;;;;2.50;2.30;;;15.90;68.70;;;15.11;63.45;100690.28;12262110;19;20456;-87
2022/10/24 07:38:27;;;;;;;3.42;2.88;;;16.00;68.80;;;15.04;63.59;100665.38;12268175;19;20018;-87
2022/10/24 07:42:29;;;;;;;4.18;1.88;;;16.30;69.90;;;15.29;63.64;100695.13;12273521;19;20010;-86
2022/10/24 07:46:30;;;;;;;7.80;2.20;;;16.20;70.50;;;15.27;63.70;100682.09;12275723;19;20015;-87
2022/10/24 07:50:52;;;;;;;2.88;2.00;;;16.40;70.00;;;15.09;63.71;100650.09;12277201;19;20077;-87
2022/10/24 07:54:54;;;;;;;2.13;1.83;;;16.60;70.80;;;15.19;63.91;100648.47;12275131;19;20018;-86
2022/10/24 07:58:57;;;;;;;2.10;1.70;;;16.40;70.20;;;15.19;63.84;100626.59;12272349;19;20018;-87
2022/10/24 08:03:07;;;;;;;1.65;1.55;;;16.50;70.40;;;15.29;64.12;100635.47;12281487;19;20014;-87
2022/10/24 08:07:12;;;;;;;2.17;1.60;;;16.60;70.70;;;15.44;64.06;100644.78;12272709;19;20015;-86
2022/10/24 08:11:21;;;;;;;3.78;1.50;;;16.70;70.80;;;15.53;64.00;100639.78;12279639;19;20352;-87
2022/10/24 08:15:27;;;;;;;2.13;1.92;;;16.80;70.90;;;15.51;64.21;100618.03;12278589;19;20529;-86
2022/10/24 08:19:42;;;;;;;2.53;1.77;;;17.00;71.50;;;15.57;64.07;100607.00;12281201;19;20014;-87
2022/10/24 08:23:47;;;;;;;4.63;1.63;;;17.10;71.50;;;15.69;64.09;100612.19;12282216;19;20010;-86
2022/10/24 08:27:48;;;;;;;2.15;1.95;;;17.10;71.50;;;15.90;64.25;100649.16;12276031;19;20014;-86
2022/10/24 08:31:53;;;;;;;1.90;1.60;;;17.30;71.90;;;16.32;64.33;100685.38;12276122;19;20014;-86
2022/10/24 08:36:20;;;;;;;5.40;2.25;;;17.40;72.00;;;16.47;64.46;100699.97;12272720;19;20014;-86
2022/10/24 08:40:24;;;;;;;5.75;1.88;;;17.40;72.30;;;16.21;64.35;100635.34;12274235;19;20015;-85
2022/10/24 08:44:38;;;;;;;2.20;1.40;;;17.60;72.40;;;16.68;64.49;100692.09;12271185;19;20066;-86
2022/10/24 08:48:56;;;;;;;3.97;1.80;;;17.70;72.40;;;16.69;64.62;100688.53;12265045;19;20050;-84
2022/10/24 08:53:10;;;;;;;2.30;1.60;;;17.70;72.30;;;16.81;64.59;100684.91;12272713;19;20015;-85
2022/10/24 08:57:29;;;;;;;1.63;1.53;;;17.90;72.50;;;16.48;64.58;100613.81;12266824;19;20018;-86
2022/10/24 09:01:51;;;;;;;3.42;1.33;;;18.00;72.90;;;16.52;64.75;100599.41;12270779;19;20027;-86
2022/10/24 09:06:18;;;;;;;2.85;1.60;;;18.20;73.30;;;16.89;64.82;100633.31;12269000;19;20029;-85
2022/10/24 09:10:42;;;;;;;4.88;1.90;;;18.20;73.20;;;16.97;64.84;100628.25;12270854;19;20043;-85
2022/10/24 09:14:56;;;;;;;4.55;1.85;;;18.50;73.90;;;16.98;64.81;100608.81;12268068;19;20011;-87
2022/10/24 09:19:02;;;;;;;2.80;1.73;;;18.50;72.90;;;17.23;64.96;100626.88;12264191;19;20078;-86
2022/10/24 09:23:26;;;;;;;3.03;1.40;;;18.70;72.90;;;17.34;64.72;100628.63;12259501;19;20350;-85
2022/10/24 09:27:35;;;;;;;2.30;1.30;;;18.70;72.60;;;17.27;64.73;100594.94;12262808;19;20011;-86
2022/10/24 09:31:40;;;;;;;2.95;1.40;;;18.80;72.60;;;17.41;64.92;100602.50;12266205;19;20451;-86
2022/10/24 09:35:58;;;;;;;1.67;1.57;;;18.80;72.40;;;17.80;64.95;100663.47;12269904;19;20044;-86
2022/10/24 09:40:35;;;;;;;2.42;1.42;;;19.00;72.00;;;18.09;64.85;100687.34;12265615;19;20018;-85
2022/10/24 09:45:35;;;;;;;2.13;1.55;;;19.10;72.00;;;17.68;64.75;100608.03;12268367;19;20017;-85
2022/10/24 09:50:00;;;;;;;3.13;1.38;;;19.20;71.50;;;17.98;64.82;100635.41;12258251;19;20675;-85
2022/10/24 09:54:22;;;;;;;4.70;1.77;;;19.30;71.30;;;18.40;64.73;100687.28;12266754;19;20073;-85
2022/10/24 09:58:32;;;;;;;1.77;1.20;;;19.40;71.10;;;18.30;64.73;100659.00;12260100;19;20308;-86
2022/10/24 10:03:21;;;;;;;6.18;1.52;;;19.60;71.10;;;18.05;64.95;100591.63;12265575;19;20006;-86
2022/10/24 10:07:37;;;;;;;4.22;1.45;;;19.70;70.80;;;18.38;64.82;100637.19;12265819;19;20483;-86
2022/10/24 10:27:03;;;;;;;3.33;1.27;;;20.00;69.50;;;18.66;64.80;100629.38;12258509;19;20018;-86
2022/10/24 10:31:12;;;;;;;4.63;1.30;;;20.00;68.80;;;18.72;64.92;100623.56;12265872;19;20607;-87
2022/10/24 10:35:31;;;;;;;4.20;1.30;;;20.20;68.70;;;19.08;64.49;100663.53;12257570;19;20551;-85
2022/10/24 10:40:26;;;;;;;5.50;2.45;;;20.30;67.90;;;19.27;64.49;100679.38;12261105;19;20022;-85
2022/10/24 10:44:58;;;;;;;2.28;1.25;;;20.30;68.10;;;18.99;64.69;100622.88;12265331;19;20535;-85
2022/10/24 10:59:52;;;;;;;1.95;1.13;;;20.50;67.20;;;19.51;64.30;100673.59;12256573;19;20014;-86
2022/10/24 11:04:24;;;;;;;2.58;1.27;;;20.50;67.00;;;19.55;64.48;100669.72;12264229;19;20476;-85
2022/10/24 11:08:50;;;;;;;1.80;1.48;;;20.60;66.70;;;19.60;64.33;100658.66;12257769;19;20108;-84
2022/10/24 11:13:16;;;;;;;2.70;1.30;;;20.70;66.60;;;19.27;64.24;100594.66;12257890;19;20112;-87
2022/10/24 11:17:49;;;;;;;4.43;1.53;;;20.70;66.60;;;19.17;64.27;100565.56;12258197;19;20010;-86
2022/10/24 11:21:56;;;;;;;;;;;20.70;66.20;;;19.37;64.35;100598.09;12261826;19;20287;-85
2022/10/24 11:26:32;;;;;;;5.88;1.10;;;20.80;66.80;;;19.66;64.13;100644.88;12261362;19;19915;-85
2022/10/24 11:30:55;;;;;;;2.55;1.45;;;20.80;66.20;;;19.73;63.94;100639.81;12259058;19;20030;-87
2022/10/24 11:35:18;;;;;;;2.33;1.20;;;20.90;66.00;;;19.97;63.97;100669.28;12257771;19;20043;-86
2022/10/24 11:40:08;;;;;;;3.03;1.35;;;20.90;65.90;;;20.00;63.82;100668.16;12259907;19;20025;-87
2022/10/24 11:44:51;;;;;;;3.22;1.45;;;21.00;65.50;;;20.03;64.16;100662.56;12264513;19;20034;-85
2022/10/24 11:49:08;;;;;;;2.83;1.40;;;21.00;64.80;;;19.86;63.78;100625.25;12263642;19;20015;-89
2022/10/24 11:54:06;;;;;;;6.20;1.60;;;21.20;65.70;;;20.13;63.98;100652.72;12261653;19;20019;-86
2022/10/24 11:58:30;;;;;;;4.15;1.33;;;21.20;64.90;;;19.83;63.71;100609.66;12260769;19;20036;-86
2022/10/24 12:03:20;;;;;;;5.57;2.67;;;21.20;64.70;;;20.21;63.36;100657.28;12255997;19;20464;-85
2022/10/24 12:07:27;;;;;;;2.00;1.05;;;21.10;64.30;;;20.24;63.72;100647.22;12249166;19;20452;-86
2022/10/24 12:12:06;;;;;;;2.72;1.35;;;21.20;63.90;;;20.26;63.57;100641.78;12248940;19;20014;-85
2022/10/24 12:16:40;;;;;;;2.17;1.10;;;21.20;63.60;;;20.28;63.54;100631.81;12242936;19;20015;-84
2022/10/24 12:20:42;;;;;;;2.75;1.33;;;21.20;64.10;;;20.30;63.69;100616.59;12246378;19;20006;-84
2022/10/24 12:24:44;;;;;;;4.82;1.48;;;21.30;63.60;;;20.32;63.50;100620.78;12255824;19;20502;-85
2022/10/24 12:29:04;;;;;;;2.55;1.20;;;21.30;63.40;;;20.36;63.23;100626.63;12253963;19;20460;-85
2022/10/24 12:33:26;;;;;;;2.22;1.42;;;21.30;63.20;;;20.33;63.26;100618.94;12257636;19;20010;-86
2022/10/24 12:37:35;;;;;;;3.88;1.45;;;21.40;63.60;;;20.27;63.45;100596.53;12256258;19;20027;-85
2022/10/24 12:41:39;;;;;;;1.50;1.40;;;21.40;63.60;;;20.41;62.76;100612.91;12258401;19;20018;-85
2022/10/24 12:45:40;;;;;;;2.75;1.20;;;21.40;63.10;;;20.42;62.90;100590.72;12255556;19;20006;-84
2022/10/24 12:49:42;;;;;;;2.88;1.52;;;21.40;63.00;;;20.48;63.10;100603.34;12251865;19;20006;-84
2022/10/24 12:54:04;;;;;;;3.92;1.50;;;21.60;63.10;;;20.53;62.94;100609.03;12258332;19;20077;-85
2022/10/24 12:58:28;;;;;;;4.25;1.50;;;21.40;63.00;;;20.53;62.80;100604.59;12254639;19;20011;-85
2022/10/24 13:02:40;;;;;;;3.88;1.60;;;21.50;63.10;;;20.61;62.83;100598.53;12252460;19;20502;-84
2022/10/24 13:07:02;;;;;;;2.92;1.88;;;21.50;63.00;;;20.54;62.73;100590.34;12253364;19;20035;-84
2022/10/24 13:11:55;;;;;;;2.95;1.67;;;21.50;63.00;;;20.62;62.73;100591.41;12255448;19;20034;-84
2022/10/24 13:16:27;;;;;;;2.20;1.30;;;21.50;62.40;;;20.65;62.72;100597.22;12246235;19;20028;-85
2022/10/24 13:20:41;;;;;;;1.67;0.95;;;21.60;62.90;;;20.61;62.64;100581.78;12254990;19;20017;-85
2022/10/24 13:24:43;;;;;;;2.60;1.60;;;21.60;62.70;;;20.68;62.79;100596.09;12254744;19;20406;-85
2022/10/24 13:28:44;;;;;;;3.10;1.33;;;21.60;62.30;;;20.74;62.49;100606.94;12251456;19;20014;-86
2022/10/24 13:32:46;;;;;;;8.93;1.70;;;21.80;62.30;;;20.70;62.52;100599.44;12253772;19;20010;-85
2022/10/24 13:37:00;;;;;;;4.85;1.40;;;21.60;62.20;;;20.76;62.72;100609.41;12258015;19;20034;-87
2022/10/24 13:41:06;;;;;;;3.15;1.50;;;21.70;62.00;;;20.79;62.57;100606.47;12270500;19;20031;-86
2022/10/24 13:45:39;;;;;;;4.78;1.50;;;21.70;61.60;;;20.76;62.47;100607.59;12276002;19;20078;-86
2022/10/24 13:50:16;;;;;;;2.72;1.27;;;21.70;61.80;;;20.72;62.40;100602.78;12273811;19;20007;-86
2022/10/24 13:54:30;;;;;;;2.05;1.15;;;21.70;62.00;;;20.83;62.46;100609.66;12279136;19;20010;-85
2022/10/24 13:58:41;;;;;;;1.40;1.30;;;21.70;61.30;;;20.87;62.24;100606.53;12269258;19;20029;-88
2022/10/24 14:02:44;;;;;;;3.78;1.60;;;21.80;61.20;;;20.81;62.00;100588.56;12266387;19;20096;-85
2022/10/24 14:06:45;;;;;;;1.98;1.40;;;21.70;61.00;;;20.88;62.39;100602.06;12260521;19;20011;-84
2022/10/24 14:10:50;;;;;;;3.42;1.40;;;21.90;61.40;;;20.81;62.06;100582.44;12265122;19;20014;-86
2022/10/24 14:14:55;;;;;;;4.28;1.15;;;21.80;61.00;;;20.90;61.89;100597.41;12260218;19;20464;-86
2022/10/24 14:19:23;;;;;;;1.48;1.20;;;21.80;60.70;;;20.89;61.73;100614.34;12259093;19;20015;-85
2022/10/24 14:23:29;;;;;;;3.15;1.25;;;21.80;60.90;;;20.85;62.28;100592.59;12256639;19;20488;-86
2022/10/24 14:27:31;;;;;;;1.65;1.15;;;21.80;60.80;;;20.93;62.08;100608.56;12259373;19;20007;-86
2022/10/24 14:31:34;;;;;;;1.77;1.23;;;21.80;60.70;;;20.84;61.79;100596.22;12259085;19;20121;-86
2022/10/24 14:35:35;;;;;;;3.80;1.15;;;21.80;60.90;;;20.95;61.95;100611.06;12257632;19;20379;-86
2022/10/24 14:39:38;;;;;;;1.98;1.40;;;21.80;61.00;;;20.56;61.72;100550.41;12258256;19;20013;-86
2022/10/24 14:43:50;;;;;;;2.10;1.27;;;21.80;61.20;;;20.56;61.90;100561.00;12257035;19;20017;-85
2022/10/24 14:47:55;;;;;;;2.78;1.45;;;21.80;61.20;;;20.73;61.99;100594.63;12257300;19;20007;-85
2022/10/24 14:52:10;;;;;;;2.80;1.58;;;21.70;60.60;;;20.59;61.63;100570.50;12259406;19;20014;-86
2022/10/24 14:56:41;;;;;;;3.28;1.77;;;21.80;60.80;;;20.62;61.53;100584.28;12254589;19;20031;-87
2022/10/24 15:01:32;;;;;;;2.22;1.38;;;21.90;61.20;;;20.46;61.45;100562.88;12252688;19;20014;-87
2022/10/24 15:05:51;;;;;;;2.75;1.58;;;21.80;61.10;;;20.63;61.55;100580.66;12256667;19;20007;-87
2022/10/24 15:10:32;;;;;;;;;;;;;;;;;;;;;
2022/10/24 15:14:56;;;;;;;2.05;1.50;;;21.80;61.00;;;20.46;61.35;100549.63;12253970;19;20039;-87
2022/10/24 15:19:08;;;;;;;;;;;;;;;;;;;;;
2022/10/24 15:23:33;;;;;;;2.90;2.00;;;21.70;61.20;;;20.82;61.70;100639.81;12250672;19;20010;-86
2022/10/24 15:27:58;;;;;;;5.07;3.15;;;21.60;61.20;;;20.50;61.42;100588.13;12249693;19;20015;-86
2022/10/24 15:32:12;;;;;;;1.83;1.40;;;21.70;61.20;;;20.65;61.40;100623.75;12249885;19;20019;-86
2022/10/24 15:36:35;;;;;;;2.35;1.77;;;21.60;61.10;;;20.28;61.35;100563.72;12251050;19;20006;-87
2022/10/24 15:40:45;;;;;;;2.55;1.60;;;21.60;61.00;;;20.42;61.32;100582.75;12248437;19;20022;-86
2022/10/24 15:44:49;;;;;;;5.72;1.73;;;21.60;61.00;;;20.27;61.20;100564.69;12249819;19;20385;-86
2022/10/24 15:48:54;;;;;;;4.63;1.65;;;21.50;60.90;;;20.59;61.11;100621.72;12247473;19;20079;-86
2022/10/24 15:52:59;;;;;;;9.13;1.80;;;21.50;60.80;;;20.24;61.21;100580.91;12251792;19;20035;-87
2022/10/24 15:57:03;;;;;;;2.85;1.60;;;21.50;60.90;;;20.51;61.15;100632.22;12251223;19;20015;-86
2022/10/24 16:01:20;;;;;;;3.90;1.35;;;21.40;60.90;;;20.45;60.98;100625.72;12261806;19;20372;-87
2022/10/24 16:05:26;;;;;;;2.67;1.30;;;21.40;60.80;;;20.28;61.20;100608.81;12263521;19;20011;-85
2022/10/24 16:09:34;;;;;;;3.90;1.98;;;21.30;60.70;;;20.16;60.88;100610.00;12257246;19;20007;-87
2022/10/24 16:13:35;;;;;;;4.25;1.45;;;21.30;60.50;;;20.08;61.20;100592.19;12259869;19;20395;-86
2022/10/24 16:17:39;;;;;;;2.92;1.75;;;21.20;60.50;;;20.01;60.85;100604.41;12257477;19;20621;-86
2022/10/24 16:21:41;;;;;;;3.33;1.90;;;21.20;60.40;;;20.00;60.96;100597.41;12262816;19;20021;-86
2022/10/24 16:25:44;;;;;;;1.73;1.58;;;21.10;60.50;;;19.93;61.09;100606.97;12259028;19;20010;-86
2022/10/24 16:29:45;;;;;;;2.00;1.80;;;21.00;60.40;;;20.15;61.15;100660.56;12255848;19;20024;-86
2022/10/24 16:33:47;;;;;;;5.63;1.80;;;21.00;60.20;;;19.89;60.81;100624.94;12262302;19;20021;-86
2022/10/24 16:37:50;;;;;;;3.10;1.60;;;21.00;60.00;;;19.83;61.11;100633.50;12256874;19;20024;-86
2022/10/24 16:41:54;;;;;;;3.30;1.33;;;20.90;60.20;;;20.06;60.95;100667.56;12262558;19;20034;-85
2022/10/24 16:45:59;;;;;;;2.45;1.35;;;20.90;59.90;;;19.71;60.92;100629.34;12255522;19;20014;-86
2022/10/24 16:50:01;;;;;;;2.13;1.70;;;20.80;60.10;;;19.72;60.94;100632.88;12261273;19;20010;-85
2022/10/24 16:54:05;;;;;;;2.13;1.20;;;20.90;60.10;;;19.70;60.91;100630.34;12261612;19;20006;-86
2022/10/24 16:58:07;;;;;;;1.80;1.27;;;20.70;59.80;;;19.66;60.85;100623.69;12257550;19;20275;-86
2022/10/24 17:02:12;;;;;;;2.90;1.20;;;20.70;59.90;;;19.70;61.13;100645.41;12259568;19;20007;-86
2022/10/24 17:06:14;;;;;;;3.20;1.45;;;20.80;59.80;;;19.55;60.69;100634.41;12259256;19;20086;-86
2022/10/24 17:10:16;;;;;;;4.10;1.42;;;20.70;59.80;;;19.54;60.93;100641.53;12256684;19;20019;-86
2022/10/24 17:14:18;;;;;;;1.55;1.40;;;20.60;59.80;;;19.50;60.67;100631.38;12262316;19;20014;-86
2022/10/24 17:18:22;;;;;;;2.45;1.80;;;20.70;59.90;;;19.52;60.91;100642.66;12259964;19;20027;-85
2022/10/24 17:22:24;;;;;;;2.42;1.77;;;20.70;59.80;;;19.64;61.09;100668.00;12260890;19;20022;-86
2022/10/24 17:26:26;;;;;;;2.45;1.30;;;20.60;59.70;;;19.46;61.04;100636.13;12256821;19;20011;-87
2022/10/24 17:30:29;;;;;;;2.78;1.20;;;20.50;59.70;;;19.38;60.77;100626.25;12262094;19;20006;-86
2022/10/24 17:34:32;;;;;;;1.02;0.95;;;20.50;59.60;;;19.64;60.84;100676.78;12259308;19;20014;-86
2022/10/24 17:38:48;;;;;;;2.83;1.15;;;20.50;59.70;;;19.49;60.86;100661.50;12249566;19;20009;-86
2022/10/24 17:42:51;;;;;;;4.03;1.23;;;20.40;59.90;;;19.12;60.53;100604.00;12254904;19;20030;-86
2022/10/24 17:46:53;;;;;;;1.65;1.00;;;20.40;59.50;;;19.34;60.71;100630.19;12254220;19;20431;-87